Time;durP1;ratioP1;P1;durP2;ratioP2;P2;SDS_P1;SDS_P2;PMS_P1;PMS_P2;Temp;Humidity;BMP_temperature;BMP_pressure;BME280_temperature;BME280_humidity;BME280_pressure;Samples;Min_cycle;Max_cycle;Signal;HPM_P1;HPM_P2
2022/07/05 00:00:29;;;;;;;;;4.00;3.00;;;;;24.86;34.28;100816.06;146612;691;46012;-72
2022/07/05 00:03:21;;;;;;;;;3.00;3.00;;;;;24.92;33.78;100809.81;146605;613;46018;-70
2022/07/05 00:06:13;;;;;;;;;4.00;3.00;;;;;24.94;33.79;100808.94;146607;593;46018;-75
2022/07/05 00:09:05;;;;;;;;;4.50;4.00;;;;;24.97;34.74;100806.25;146611;717;46010;-75
2022/07/05 00:11:57;;;;;;;;;3.00;3.00;;;;;25.02;34.04;100807.13;146610;587;46010;-74
2022/07/05 00:14:50;;;;;;;;;2.00;2.00;;;;;25.08;34.13;100808.84;146607;590;46019;-74
2022/07/05 00:17:42;;;;;;;;;3.50;3.50;;;;;25.03;33.71;100813.28;146610;602;45028;-73
2022/07/05 00:20:34;;;;;;;;;4.75;4.75;;;;;24.94;34.61;100821.31;146608;743;46018;-73
2022/07/05 00:23:26;;;;;;;;;3.75;3.75;;;;;24.87;33.81;100824.00;146602;564;46019;-72
2022/07/05 00:26:19;;;;;;;;;4.00;4.00;;;;;24.75;34.10;100817.88;146613;582;45033;-68
2022/07/05 00:29:11;;;;;;;;;3.00;3.00;;;;;24.60;34.62;100819.72;146609;584;46010;-67
2022/07/05 00:32:03;;;;;;;;;3.00;3.00;;;;;24.43;34.30;100818.94;146604;602;46018;-74
2022/07/05 00:34:55;;;;;;;;;5.00;4.50;;;;;24.30;34.48;100826.00;146607;592;46018;-69
2022/07/05 00:37:47;;;;;;;;;4.00;3.25;;;;;24.18;34.58;100820.75;146610;648;46018;-69
2022/07/05 00:40:39;;;;;;;;;3.67;3.67;;;;;24.03;34.65;100820.78;146611;589;46010;-74
2022/07/05 00:43:31;;;;;;;;;4.00;4.00;;;;;23.91;34.76;100821.69;146607;567;46018;-70
2022/07/05 00:46:24;;;;;;;;;6.25;4.25;;;;;23.83;35.10;100819.06;146612;571;46018;-71
2022/07/05 00:49:16;;;;;;;;;4.00;4.00;;;;;23.82;35.84;100819.06;146612;678;46008;-71
2022/07/05 00:52:09;;;;;;;;;4.00;4.00;;;;;23.83;35.84;100818.16;146611;586;46019;-72
2022/07/05 00:55:01;;;;;;;;;5.00;4.00;;;;;23.85;36.01;100824.34;146604;660;46018;-69
2022/07/05 00:57:53;;;;;;;;;3.75;3.75;;;;;23.82;36.05;100819.06;146611;591;46010;-69
2022/07/05 01:00:46;;;;;;;;;4.00;3.00;;;;;23.83;36.48;100815.53;146604;569;45923;-68
2022/07/05 01:03:38;;;;;;;;;4.00;3.00;;;;;23.84;36.91;100812.87;146608;644;46018;-69
2022/07/05 01:06:31;;;;;;;;;4.00;3.00;;;;;23.85;36.32;100805.81;146607;569;46923;-70
2022/07/05 01:09:25;;;;;;;;;5.33;5.00;;;;;23.82;36.13;100808.47;146609;596;46018;-68
2022/07/05 01:12:19;;;;;;;;;3.50;3.50;;;;;23.81;36.05;100807.59;146607;601;46018;-69
2022/07/05 01:15:12;;;;;;;;;4.33;2.67;;;;;23.77;36.28;100816.44;146622;588;46010;-68
2022/07/05 01:18:04;;;;;;;;;2.00;2.00;;;;;23.75;36.45;100812.91;146627;563;46010;-70
2022/07/05 01:20:57;;;;;;;;;4.33;3.33;;;;;23.71;36.66;100813.78;146629;581;46010;-69
2022/07/05 01:23:49;;;;;;;;;3.00;3.00;;;;;23.67;36.89;100811.97;146629;585;46010;-68
2022/07/05 01:26:42;;;;;;;;;3.00;3.00;;;;;23.58;36.47;100809.34;146627;621;46010;-68
2022/07/05 01:29:34;;;;;;;;;2.67;2.67;;;;;23.52;36.73;100812.91;146626;598;46010;-69
2022/07/05 01:32:26;;;;;;;;;2.00;2.00;;;;;23.54;37.25;100805.81;146627;620;45018;-68
2022/07/05 01:35:23;;;;;;;;;2.00;2.00;;;;;23.66;37.36;100813.75;146622;614;46018;-69
2022/07/05 01:38:16;;;;;;;;;2.33;2.33;;;;;23.83;37.09;100816.44;146626;611;46008;-69
2022/07/05 01:41:09;;;;;;;;;3.67;3.67;;;;;23.96;36.91;100812.87;146625;569;45018;-70
2022/07/05 01:44:01;;;;;;;;;3.00;2.33;;;;;24.08;36.06;100811.03;146625;604;45018;-70
2022/07/05 01:46:58;;;;;;;;;3.25;3.25;;;;;24.15;36.12;100819.00;146626;621;46010;-71
2022/07/05 01:49:53;;;;;;;;;5.00;3.00;;;;;24.27;35.78;100814.50;146630;565;46011;-71
2022/07/05 01:52:50;;;;;;;;;2.00;2.00;;;;;24.37;35.80;100830.41;146623;576;46010;-66
2022/07/05 01:55:43;;;;;;;;;3.67;3.67;;;;;24.42;35.37;100826.00;146627;593;45018;-68
2022/07/05 01:58:36;;;;;;;;;5.50;4.25;;;;;24.47;35.93;100827.75;146629;577;46011;-70
2022/07/05 02:01:46;;;;;;;;;4.00;3.50;;;;;24.48;36.68;100821.53;146631;574;45010;-73
2022/07/05 02:04:39;;;;;;;;;3.00;3.00;;;;;24.51;37.26;100824.19;146624;573;46011;-68
2022/07/05 02:07:31;;;;;;;;;4.00;4.00;;;;;24.59;37.02;100827.69;146629;571;45031;-70
2022/07/05 02:10:23;;;;;;;;;5.00;4.00;;;;;24.24;37.22;100767.75;146627;589;45018;-70
2022/07/05 02:13:16;;;;;;;;;3.67;3.00;;;;;24.69;37.22;100841.78;146622;607;45019;-71
2022/07/05 02:16:08;;;;;;;;;5.00;4.00;;;;;24.66;37.80;100853.28;146611;578;46010;-70
2022/07/05 02:19:00;;;;;;;;;5.00;3.00;;;;;24.47;38.59;100841.88;146610;611;46010;-70
2022/07/05 02:21:53;;;;;;;;;5.33;4.67;;;;;24.30;39.15;100844.56;146609;590;46018;-71
2022/07/05 02:24:45;;;;;;;;;7.00;6.00;;;;;24.20;39.45;100845.44;146610;595;46018;-71
2022/07/05 02:27:37;;;;;;;;;6.00;4.00;;;;;24.08;39.38;100851.69;146605;598;46011;-69
2022/07/05 02:30:29;;;;;;;;;5.00;5.00;;;;;24.01;39.50;100854.34;146611;674;46010;-69
2022/07/05 02:33:22;;;;;;;;;6.67;4.67;;;;;23.92;39.66;100858.75;146612;607;46018;-69
2022/07/05 02:36:16;;;;;;;;;8.67;6.00;;;;;23.80;39.14;100866.75;146616;574;45030;-68
2022/07/05 02:39:08;;;;;;;;;4.00;4.00;;;;;23.63;39.12;100864.03;146609;563;46018;-74
2022/07/05 02:42:00;;;;;;;;;4.67;4.00;;;;;23.51;39.84;100862.28;146607;690;46019;-70
2022/07/05 02:44:52;;;;;;;;;7.33;6.00;;;;;23.42;39.88;100874.63;146611;611;45923;-70
2022/07/05 02:47:44;;;;;;;;;3.67;3.67;;;;;23.32;39.84;100879.03;146611;640;46010;-70
2022/07/05 02:50:37;;;;;;;;;4.67;4.00;;;;;23.28;39.43;100874.63;146609;588;46019;-69
2022/07/05 02:53:29;;;;;;;;;3.75;3.75;;;;;23.25;39.10;100877.25;146609;564;45018;-70
2022/07/05 02:56:21;;;;;;;;;6.33;5.00;;;;;23.22;38.94;100888.72;146606;675;46008;-69
2022/07/05 02:59:13;;;;;;;;;3.75;3.50;;;;;23.16;38.31;100885.19;146609;689;46012;-71
2022/07/05 03:02:05;;;;;;;;;5.33;4.00;;;;;23.04;38.95;100892.19;146609;629;46018;-69
2022/07/05 03:04:57;;;;;;;;;4.00;4.00;;;;;23.03;39.12;100898.37;146613;573;46010;-70
2022/07/05 03:07:49;;;;;;;;;4.67;3.67;;;;;23.04;38.39;100891.31;146608;570;46010;-69
2022/07/05 03:10:41;;;;;;;;;4.67;3.33;;;;;22.92;38.63;100889.47;146609;674;46010;-69
2022/07/05 03:13:34;;;;;;;;;5.67;3.67;;;;;22.74;39.00;100881.47;146609;585;46010;-71
2022/07/05 03:16:26;;;;;;;;;3.00;3.00;;;;;22.60;39.34;100890.22;146609;687;46010;-70
2022/07/05 03:19:18;;;;;;;;;3.25;3.25;;;;;22.53;39.86;100890.22;146609;644;46018;-70
2022/07/05 03:22:10;;;;;;;;;4.00;4.00;;;;;22.48;39.92;100890.16;146610;657;45029;-70
2022/07/05 03:25:02;;;;;;;;;4.00;3.25;;;;;22.41;40.30;100887.50;146604;655;46010;-70
2022/07/05 03:27:54;;;;;;;;;6.00;4.75;;;;;22.36;40.24;100898.91;146609;674;46019;-70
2022/07/05 03:30:46;;;;;;;;;5.00;5.00;;;;;22.36;40.41;100895.38;146612;563;46018;-74
2022/07/05 03:33:39;;;;;;;;;5.75;5.25;;;;;22.37;40.30;100895.41;146612;569;46018;-74
2022/07/05 03:36:31;;;;;;;;;6.25;4.75;;;;;22.37;40.68;100889.25;146610;740;46018;-74
2022/07/05 03:39:23;;;;;;;;;4.00;4.00;;;;;22.32;40.59;100891.84;146609;686;46018;-77
2022/07/05 03:42:15;;;;;;;;;7.00;5.00;;;;;22.31;40.36;100886.56;146610;720;46010;-76
2022/07/05 03:45:09;;;;;;;;;4.25;3.75;;;;;22.36;40.80;100887.47;146606;590;46018;-75
2022/07/05 03:48:04;;;;;;;;;5.00;5.00;;;;;22.56;40.80;100887.59;146610;638;46011;-76
2022/07/05 03:50:56;;;;;;;;;3.50;3.50;;;;;22.74;40.76;100895.59;146608;647;46018;-73
2022/07/05 03:53:49;;;;;;;;;5.25;4.00;;;;;22.89;40.94;100892.09;146602;624;46018;-72
2022/07/05 03:56:41;;;;;;;;;4.50;4.50;;;;;22.99;40.77;100893.03;146612;565;46010;-73
2022/07/05 03:59:33;;;;;;;;;6.00;5.00;;;;;23.01;40.29;100892.19;146613;691;46008;-72
2022/07/05 04:02:25;;;;;;;;;5.00;5.00;;;;;23.02;40.69;100896.62;146610;563;46010;-71
2022/07/05 04:05:18;;;;;;;;;3.00;3.00;;;;;23.11;41.13;100897.50;146612;725;46010;-71
2022/07/05 04:08:10;;;;;;;;;5.00;5.00;;;;;23.23;41.39;100897.53;146609;630;46018;-70
2022/07/05 04:11:02;;;;;;;;;5.75;5.50;;;;;23.32;41.49;100894.91;146612;679;46010;-72
2022/07/05 04:13:54;;;;;;;;;4.00;4.00;;;;;23.39;41.49;100901.09;146610;569;46010;-73
2022/07/05 04:16:46;;;;;;;;;6.00;5.00;;;;;23.48;41.05;100907.25;146610;564;46011;-72
2022/07/05 04:19:38;;;;;;;;;5.75;5.75;;;;;23.56;41.71;100899.34;146611;636;46010;-70
2022/07/05 04:22:30;;;;;;;;;5.00;4.25;;;;;23.59;41.99;100906.41;146604;620;46010;-70
2022/07/05 04:25:23;;;;;;;;;3.00;3.00;;;;;23.62;41.74;100907.28;146612;576;46011;-70
2022/07/05 04:28:15;;;;;;;;;6.50;5.00;;;;;23.78;41.61;100913.50;146609;569;46010;-68
2022/07/05 04:31:07;;;;;;;;;3.75;3.00;;;;;24.00;42.07;100921.44;146612;602;46010;-67
2022/07/05 04:33:59;;;;;;;;;6.00;4.00;;;;;24.20;41.72;100917.00;146608;638;46019;-67
2022/07/05 04:36:51;;;;;;;;;4.50;4.50;;;;;24.37;42.02;100923.16;146610;565;46010;-67
2022/07/05 04:39:43;;;;;;;;;8.50;6.00;;;;;24.55;41.67;100914.31;146609;636;46018;-69
2022/07/05 04:42:36;;;;;;;;;7.25;5.00;;;;;24.75;40.84;100911.56;146610;632;46018;-69
2022/07/05 04:45:28;;;;;;;;;5.50;4.00;;;;;24.95;40.21;100913.25;146609;628;45923;-69
2022/07/05 04:48:20;;;;;;;;;6.50;5.25;;;;;25.12;41.05;100911.41;146611;631;46010;-68
2022/07/05 04:51:12;;;;;;;;;6.25;5.75;;;;;25.34;40.90;100913.06;146605;645;46010;-69
2022/07/05 04:54:04;;;;;;;;;6.75;5.75;;;;;25.57;40.58;100914.66;146610;699;46018;-68
2022/07/05 04:56:56;;;;;;;;;6.00;4.25;;;;;25.86;40.48;100916.25;146608;638;46018;-69
2022/07/05 04:59:49;;;;;;;;;5.75;4.75;;;;;26.16;39.19;100915.97;146610;569;46018;-69
2022/07/05 05:02:42;;;;;;;;;5.75;4.75;;;;;26.39;38.48;100920.19;146613;639;45019;-69
2022/07/05 05:05:34;;;;;;;;;5.00;4.75;;;;;26.49;38.42;100916.56;146611;583;46018;-71
2022/07/05 05:08:26;;;;;;;;;5.00;4.75;;;;;26.57;36.94;100917.31;146607;687;46018;-68
2022/07/05 05:11:18;;;;;;;;;5.00;5.00;;;;;26.69;37.30;100922.50;146611;633;46011;-69
2022/07/05 05:14:11;;;;;;;;;8.67;5.67;;;;;26.87;37.48;100924.06;146612;606;46018;-69
2022/07/05 05:17:03;;;;;;;;;6.00;6.00;;;;;27.09;35.72;100927.31;146612;695;46010;-68
2022/07/05 05:19:55;;;;;;;;;5.67;5.67;;;;;27.29;36.03;100924.44;146606;581;46010;-68
2022/07/05 05:22:49;;;;;;;;;5.67;4.67;;;;;27.52;36.85;100926.72;146614;632;46010;-68
2022/07/05 05:25:41;;;;;;;;;6.75;6.50;;;;;27.78;35.67;100928.13;146610;663;46010;-66
2022/07/05 05:28:33;;;;;;;;;7.25;7.00;;;;;27.99;36.47;100927.75;146612;569;46010;-66
2022/07/05 05:31:25;;;;;;;;;7.00;7.00;;;;;28.20;35.67;100930.97;146610;588;46010;-68
2022/07/05 05:34:18;;;;;;;;;4.50;4.50;;;;;28.41;35.05;100924.38;146609;679;46018;-69
2022/07/05 05:37:10;;;;;;;;;5.67;5.67;;;;;28.53;35.26;100926.78;146607;658;46018;-69
2022/07/05 05:40:02;;;;;;;;;5.00;5.00;;;;;28.62;35.47;100926.59;146613;674;46011;-72
2022/07/05 05:42:56;;;;;;;;;8.00;6.50;;;;;28.67;34.88;100930.06;146611;564;46010;-71
2022/07/05 05:45:48;;;;;;;;;6.50;5.25;;;;;28.65;35.65;100921.22;146609;647;46020;-72
2022/07/05 05:48:40;;;;;;;;;4.67;3.33;;;;;28.70;37.09;100931.81;146605;570;46010;-70
2022/07/05 05:51:33;;;;;;;;;8.25;6.00;;;;;28.71;37.03;100926.44;146608;640;46018;-70
2022/07/05 05:54:25;;;;;;;;;7.00;5.00;;;;;28.71;38.05;100921.09;146614;624;46010;-70
2022/07/05 05:57:17;;;;;;;;;4.00;3.00;;;;;28.67;37.28;100916.72;146612;636;46010;-73
2022/07/05 06:00:11;;;;;;;;;4.67;4.67;;;;;28.63;38.28;100923.06;146608;597;46018;-70
2022/07/05 06:03:03;;;;;;;;;7.67;4.67;;;;;28.51;38.80;100929.50;146612;580;46012;-70
2022/07/05 06:05:55;;;;;;;;;8.00;5.00;;;;;28.51;39.17;100918.84;146609;591;46018;-71
2022/07/05 06:08:47;;;;;;;;;7.00;6.00;;;;;28.62;38.58;100917.72;146610;573;46013;-70
2022/07/05 06:11:40;;;;;;;;;5.67;4.00;;;;;28.75;38.02;100929.91;146610;586;46019;-71
2022/07/05 06:14:32;;;;;;;;;5.33;5.33;;;;;28.83;38.41;100925.28;146608;581;47018;-77
2022/07/05 06:17:24;;;;;;;;;3.00;2.67;;;;;28.84;40.14;100921.72;146602;565;46010;-75
2022/07/05 06:20:22;;;;;;;;;3.00;3.00;;;;;28.89;40.52;100911.81;146611;635;46010;-74
2022/07/05 06:23:14;;;;;;;;;4.00;3.00;;;;;29.06;39.95;100923.94;146611;658;46019;-74
2022/07/05 06:26:07;;;;;;;;;7.67;4.67;;;;;29.19;40.46;100921.00;146613;651;46010;-77
2022/07/05 06:28:59;;;;;;;;;5.67;3.00;;;;;29.32;39.64;100926.06;146612;575;46008;-74
2022/07/05 06:31:51;;;;;;;;;4.00;4.00;;;;;29.36;40.87;100923.25;146612;592;46010;-74
2022/07/05 06:34:43;;;;;;;;;5.00;5.00;;;;;29.39;40.97;100920.53;146609;661;46922;-72
2022/07/05 06:38:07;;;;;;;;;3.50;3.50;;;;;29.38;39.49;100916.09;146615;564;46010;-73
2022/07/05 06:41:00;;;;;;;;;3.67;3.67;;;;;29.39;41.21;100925.88;146611;608;46018;-73
2022/07/05 06:43:52;;;;;;;;;5.00;4.33;;;;;29.40;41.81;100926.72;146612;678;46010;-86
2022/07/05 06:46:44;;;;;;;;;6.75;4.50;;;;;29.49;40.67;100928.31;146602;585;46019;-85
2022/07/05 06:49:37;;;;;;;;;5.00;3.33;;;;;29.58;40.04;100926.28;146615;585;46010;-82
2022/07/05 06:52:29;;;;;;;;;4.33;4.00;;;;;29.64;41.33;100926.19;146607;622;46018;-81
2022/07/05 06:55:21;;;;;;;;;3.00;3.00;;;;;29.67;40.67;100928.78;146611;618;46010;-80
2022/07/05 06:58:13;;;;;;;;;4.33;4.33;;;;;29.55;41.83;100904.13;146612;631;46010;-82
2022/07/05 07:01:05;;;;;;;;;8.00;6.33;;;;;29.71;41.50;100934.06;146611;610;46011;-81
2022/07/05 07:03:57;;;;;;;;;5.25;5.25;;;;;29.68;41.47;100926.97;146609;662;46018;-82
2022/07/05 07:06:50;;;;;;;;;6.00;5.00;;;;;29.72;41.74;100927.78;146614;591;46010;-80
2022/07/05 07:09:42;;;;;;;;;5.67;5.67;;;;;29.59;41.37;100911.13;146608;567;46010;-82
2022/07/05 07:12:34;;;;;;;;;6.67;6.67;;;;;29.77;40.86;100939.25;146609;637;46018;-82
2022/07/05 07:15:26;;;;;;;;;5.00;4.00;;;;;29.86;40.58;100937.22;146604;583;46018;-83
2022/07/05 07:18:19;;;;;;;;;3.67;3.00;;;;;29.98;41.13;100935.16;146611;577;46012;-81
2022/07/05 07:21:11;;;;;;;;;7.67;6.00;;;;;30.01;40.76;100935.09;146612;605;46018;-81
2022/07/05 07:24:04;;;;;;;;;5.00;4.00;;;;;29.89;39.69;100909.53;146613;569;46012;-83
2022/07/05 07:27:06;;;;;;;;;5.33;4.33;;;;;29.98;40.00;100938.72;146611;599;46010;-72
2022/07/05 07:29:58;;;;;;;;;5.67;4.67;;;;;29.96;39.62;100940.53;146613;636;46010;-73
2022/07/05 07:32:50;;;;;;;;;4.33;4.00;;;;;29.97;39.39;100930.72;146609;608;46018;-72
2022/07/05 07:35:42;;;;;;;;;4.33;4.33;;;;;30.00;39.00;100926.19;146610;584;46012;-72
2022/07/05 07:38:35;;;;;;;;;3.67;3.00;;;;;30.07;37.63;100926.91;146608;606;46010;-73
2022/07/05 07:41:27;;;;;;;;;5.00;5.00;;;;;30.15;38.20;100924.87;146611;600;46010;-74
2022/07/05 07:44:20;;;;;;;;;3.00;3.00;;;;;30.26;36.92;100932.66;146601;579;46019;-73
2022/07/05 07:47:12;;;;;;;;;5.00;5.00;;;;;30.36;36.16;100929.69;146610;578;46010;-71
2022/07/05 07:50:05;;;;;;;;;2.67;2.67;;;;;30.41;36.24;100923.34;146610;570;46010;-73
2022/07/05 07:52:58;;;;;;;;;4.00;4.00;;;;;30.50;36.29;100929.31;146612;584;46010;-72
2022/07/05 07:55:52;;;;;;;;;5.00;4.00;;;;;30.20;36.03;100856.16;146611;638;46018;-80
2022/07/05 07:58:44;;;;;;;;;5.25;5.00;;;;;30.73;35.42;100927.78;146608;681;46018;-78
2022/07/05 08:01:36;;;;;;;;;4.00;3.00;;;;;30.77;35.04;100929.44;146611;607;46011;-81
2022/07/05 08:04:28;;;;;;;;;6.50;3.50;;;;;30.83;35.09;100937.31;146612;571;46010;-80
2022/07/05 08:07:21;;;;;;;;;3.00;3.00;;;;;30.86;34.05;100928.31;146611;661;46010;-82
2022/07/05 08:10:14;;;;;;;;;5.00;5.00;;;;;30.88;34.43;100939.88;146614;643;46012;-91
2022/07/05 08:13:07;;;;;;;;;5.50;4.00;;;;;30.79;34.71;100914.25;146606;626;46010;-83
2022/07/05 08:15:58;;;;;;;;;4.00;4.00;;;;;30.91;34.29;100926.41;146612;602;46010;-83
2022/07/05 08:22:01;;;;;;;;;4.25;3.75;;;;;31.01;34.96;100930.56;146606;564;45043;-81
2022/07/05 08:24:53;;;;;;;;;3.25;3.25;;;;;31.07;35.48;100941.06;146610;653;46010;-83
2022/07/05 08:27:46;;;;;;;;;5.00;4.00;;;;;31.13;35.23;100938.22;146609;634;46010;-83
2022/07/05 08:30:38;;;;;;;;;5.75;5.75;;;;;31.12;35.05;100936.44;146608;598;46019;-84
2022/07/05 08:33:30;;;;;;;;;5.50;5.50;;;;;31.17;35.50;100934.50;146613;630;46010;-80
2022/07/05 08:36:22;;;;;;;;;5.50;5.50;;;;;31.27;34.63;100935.09;146610;576;46019;-80
2022/07/05 08:39:14;;;;;;;;;5.25;5.25;;;;;31.29;35.00;100928.78;146609;574;46019;-81
2022/07/05 08:42:12;;;;;;;;;6.00;6.00;;;;;31.36;34.92;100931.28;146604;563;46010;-82
2022/07/05 08:45:05;;;;;;;;;6.00;5.00;;;;;31.45;35.52;100928.31;146609;583;46018;-80
2022/07/05 08:48:01;;;;;;;;;8.25;6.00;;;;;31.55;35.09;100928.91;146607;595;46018;-80
2022/07/05 08:50:56;;;;;;;;;8.50;7.50;;;;;31.61;35.30;100934.06;146612;599;46010;-81
2022/07/05 08:53:49;;;;;;;;;4.25;4.25;;;;;31.67;36.21;100929.38;146612;674;45018;-80
2022/07/05 08:56:44;;;;;;;;;5.75;5.75;;;;;31.75;35.59;100930.00;146611;597;46018;-80
2022/07/05 08:59:37;;;;;;;;;6.75;6.75;;;;;31.82;35.54;100927.12;146611;618;46019;-79
2022/07/05 09:02:28;;;;;;;;;7.50;5.25;;;;;31.87;36.40;100926.03;146611;673;46010;-81
2022/07/05 09:05:23;;;;;;;;;4.00;4.00;;;;;31.96;37.13;100923.06;146607;599;46018;-80
2022/07/05 09:08:18;;;;;;;;;7.00;5.50;;;;;32.15;36.49;100925.09;146609;587;46019;-81
2022/07/05 09:11:15;;;;;;;;;5.67;5.67;;;;;32.17;35.70;100928.59;146606;571;46018;-81
2022/07/05 09:14:09;;;;;;;;;7.33;6.00;;;;;32.07;36.13;100925.37;146608;663;46010;-82
2022/07/05 09:17:02;;;;;;;;;5.67;5.67;;;;;31.83;36.61;100885.94;146611;620;46010;-83
2022/07/05 09:20:13;;;;;;;;;6.00;6.00;;;;;31.96;36.55;100915.03;146610;631;46018;-81
2022/07/05 09:23:05;;;;;;;;;7.75;7.00;;;;;32.00;36.50;100912.25;146611;578;46010;-82
2022/07/05 09:26:06;;;;;;;;;7.75;7.75;;;;;31.92;37.19;100888.34;146610;588;45022;-83
2022/07/05 09:28:59;;;;;;;;;6.50;6.50;;;;;32.05;36.93;100908.44;146611;635;46011;-84
2022/07/05 09:31:53;;;;;;;;;6.75;6.25;;;;;32.08;36.83;100904.78;146612;578;46012;-80
2022/07/05 09:34:45;;;;;;;;;7.25;7.00;;;;;32.15;37.45;100903.62;146610;663;46010;-81
2022/07/05 09:37:48;;;;;;;;;6.00;6.00;;;;;32.22;36.42;100898.94;146609;569;46010;-80
2022/07/05 09:41:15;;;;;;;;;5.00;5.00;;;;;32.19;37.10;100894.56;146602;594;46018;-81
2022/07/05 09:44:07;;;;;;;;;7.00;7.00;;;;;32.23;35.96;100895.31;146610;656;46011;-82
2022/07/05 09:47:21;;;;;;;;;8.00;7.75;;;;;32.23;37.18;100889.94;146611;702;46018;-81
2022/07/05 09:50:13;;;;;;;;;6.00;6.00;;;;;32.25;37.21;100886.28;146605;584;46018;-79
2022/07/05 09:53:06;;;;;;;;;5.75;4.75;;;;;32.24;35.84;100884.50;146610;652;46010;-81
2022/07/05 09:56:07;;;;;;;;;5.25;4.25;;;;;32.19;36.21;100873.09;146609;591;46018;-81
2022/07/05 09:59:00;;;;;;;;;6.00;4.25;;;;;32.29;35.92;100887.03;146611;611;46010;-78
2022/07/05 10:01:52;;;;;;;;;7.50;6.50;;;;;32.27;36.29;100887.09;146608;587;46018;-82
2022/07/05 10:04:44;;;;;;;;;9.00;8.00;;;;;32.15;36.44;100864.28;146611;566;46018;-80
2022/07/05 10:07:38;;;;;;;;;8.75;7.75;;;;;32.32;36.32;100874.37;146611;583;45019;-81
2022/07/05 10:10:35;;;;;;;;;5.75;5.75;;;;;32.46;36.40;100881.09;146604;589;46010;-81
2022/07/05 10:13:27;;;;;;;;;4.75;4.75;;;;;32.49;35.17;100881.84;146611;686;46010;-79
2022/07/05 10:16:25;;;;;;;;;8.00;8.00;;;;;32.58;36.50;100886.00;146608;565;46018;-81
2022/07/05 10:19:22;;;;;;;;;7.00;5.00;;;;;32.47;36.43;100864.06;146613;689;46010;-83
2022/07/05 10:22:16;;;;;;;;;5.75;5.75;;;;;32.55;35.67;100870.00;146610;576;46921;-81
2022/07/05 10:25:09;;;;;;;;;5.50;4.75;;;;;32.53;35.54;100875.44;146612;571;46018;-84
2022/07/05 10:28:03;;;;;;;;;7.75;6.50;;;;;32.47;36.45;100846.16;146610;694;46018;-81
2022/07/05 10:30:55;;;;;;;;;8.00;7.00;;;;;32.54;35.71;100877.19;146612;591;46018;-81
2022/07/05 10:33:48;;;;;;;;;8.00;7.00;;;;;32.29;35.66;100855.72;146614;610;46010;-82
2022/07/05 10:36:42;;;;;;;;;7.00;7.00;;;;;32.31;36.34;100872.66;146611;566;46010;-81
2022/07/05 10:39:35;;;;;;;;;6.00;5.25;;;;;32.42;36.83;100872.25;146605;642;45020;-81
2022/07/05 10:42:32;;;;;;;;;7.50;7.50;;;;;32.50;36.25;100850.53;146614;635;46010;-83
2022/07/05 10:45:35;;;;;;;;;6.50;5.50;;;;;32.67;35.04;100851.59;146612;586;45031;-85
2022/07/05 10:48:32;;;;;;;;;6.50;6.50;;;;;32.65;36.05;100840.06;146612;658;45046;-82
2022/07/05 10:51:25;;;;;;;;;10.75;8.00;;;;;32.85;36.45;100859.91;146612;591;46010;-82
2022/07/05 10:54:17;;;;;;;;;6.00;5.00;;;;;32.93;35.03;100871.22;146609;716;46018;-83
2022/07/05 10:57:29;;;;;;;;;8.00;7.25;;;;;32.98;35.29;100863.87;146610;636;46008;-80
2022/07/05 11:00:22;;;;;;;;;6.50;5.25;;;;;33.04;34.59;100862.75;146613;620;45031;-81
2022/07/05 11:03:49;;;;;;;;;6.00;5.75;;;;;32.93;35.04;100855.13;146613;646;46010;-82
2022/07/05 11:06:49;;;;;;;;;8.50;8.00;;;;;32.86;36.24;100851.75;146608;639;46012;-80
2022/07/05 11:10:06;;;;;;;;;7.75;6.00;;;;;32.81;35.97;100860.97;146606;672;46010;-81
2022/07/05 11:12:58;;;;;;;;;8.50;6.50;;;;;32.74;35.54;100857.63;146608;683;46019;-80
2022/07/05 11:16:27;;;;;;;;;8.00;7.00;;;;;32.79;34.83;100849.41;146613;575;46018;-82
2022/07/05 11:19:21;;;;;;;;;8.75;8.50;;;;;32.85;36.43;100854.53;146614;592;46010;-78
2022/07/05 11:22:14;;;;;;;;;6.00;6.00;;;;;32.90;37.21;100855.22;146608;671;46018;-81
2022/07/05 11:25:07;;;;;;;;;6.25;5.50;;;;;32.90;37.01;100852.56;146610;575;46010;-81
2022/07/05 11:28:17;;;;;;;;;10.00;8.00;;;;;32.88;37.12;100852.59;146608;564;46010;-82
2022/07/05 11:31:10;;;;;;;;;6.75;6.75;;;;;32.87;36.97;100849.97;146613;573;46010;-79
2022/07/05 11:34:21;;;;;;;;;5.50;5.50;;;;;32.94;35.86;100854.16;146609;569;46019;-81
2022/07/05 11:37:34;;;;;;;;;6.00;6.00;;;;;33.04;36.13;100839.44;146609;569;46020;-82
2022/07/05 11:40:37;;;;;;;;;8.00;8.00;;;;;33.00;36.09;100815.47;146604;584;46010;-81
2022/07/05 11:43:34;;;;;;;;;7.50;7.50;;;;;32.95;35.09;100814.75;146611;617;46010;-82
2022/07/05 11:46:28;;;;;;;;;6.00;6.00;;;;;33.02;33.55;100838.66;146610;566;46010;-81
2022/07/05 11:49:27;;;;;;;;;6.00;5.75;;;;;33.05;34.16;100830.44;146610;583;46010;-79
2022/07/05 11:52:20;;;;;;;;;7.50;7.00;;;;;33.04;34.25;100827.84;146610;648;46010;-80
2022/07/05 11:55:14;;;;;;;;;6.25;6.25;;;;;33.06;32.44;100820.59;146611;578;46010;-82
2022/07/05 11:58:06;;;;;;;;;6.50;6.50;;;;;33.13;32.43;100829.28;146611;626;45047;-81
2022/07/05 12:00:58;;;;;;;;;7.00;5.75;;;;;33.17;32.36;100823.72;146608;667;46018;-85
2022/07/05 12:04:00;;;;;;;;;6.00;6.00;;;;;33.13;34.59;100821.22;146609;584;46019;-72
2022/07/05 12:06:52;;;;;;;;;5.50;5.50;;;;;33.04;33.75;100823.34;146610;664;46020;-75
2022/07/05 12:12:54;;;;;;;;;5.00;5.00;;;;;33.11;33.78;100815.91;146613;656;46010;-72
2022/07/05 12:15:47;;;;;;;;;4.00;4.00;;;;;33.13;32.04;100808.66;146610;690;46018;-71
2022/07/05 12:18:51;;;;;;;;;5.00;3.75;;;;;33.19;34.37;100812.91;146613;673;46010;-72
2022/07/05 12:21:43;;;;;;;;;5.25;4.25;;;;;33.22;32.48;100807.41;146607;564;46018;-73
2022/07/05 12:24:36;;;;;;;;;7.25;6.00;;;;;33.21;33.15;100811.91;146614;645;46010;-71
2022/07/05 12:27:32;;;;;;;;;7.00;5.50;;;;;33.21;32.58;100801.16;146612;632;45019;-76
2022/07/05 12:30:25;;;;;;;;;8.00;7.50;;;;;33.25;33.49;100800.09;146613;602;46010;-81
2022/07/05 12:33:17;;;;;;;;;5.00;5.00;;;;;33.33;33.36;100805.12;146610;564;46018;-86
2022/07/05 12:36:18;;;;;;;;;5.00;5.00;;;;;33.45;33.07;100803.75;146613;583;46010;-75
2022/07/05 12:39:10;;;;;;;;;4.25;4.25;;;;;33.52;33.37;100797.19;146603;569;46018;-75
2022/07/05 12:42:02;;;;;;;;;5.50;5.25;;;;;33.57;34.27;100785.31;146611;622;46010;-80
2022/07/05 12:45:09;;;;;;;;;6.00;6.00;;;;;33.53;32.00;100781.00;146611;638;46010;-79
2022/07/05 12:48:04;;;;;;;;;5.50;5.50;;;;;33.50;32.15;100781.12;146610;689;46010;-75
2022/07/05 12:50:57;;;;;;;;;8.50;7.75;;;;;33.49;33.84;100776.69;146612;584;46008;-75
2022/07/05 13:00:12;;;;;;;;;5.50;4.00;;;;;33.35;33.93;100776.37;146612;671;46010;-72
2022/07/05 13:03:04;;;;;;;;;5.75;5.75;;;;;33.37;33.64;100769.16;146608;564;46921;-71
2022/07/05 13:06:06;;;;;;;;;7.50;5.50;;;;;33.39;34.51;100761.88;146612;632;46010;-76
2022/07/05 13:09:01;;;;;;;;;7.50;6.00;;;;;33.32;33.60;100761.25;146604;685;46023;-71
2022/07/05 13:11:53;;;;;;;;;7.75;7.00;;;;;33.25;34.60;100764.28;146611;564;46011;-77
2022/07/05 13:14:53;;;;;;;;;6.00;6.00;;;;;33.19;34.74;100756.47;146609;566;47010;-72
2022/07/05 13:17:46;;;;;;;;;7.50;6.25;;;;;33.14;34.40;100764.72;146611;635;46011;-77
2022/07/05 13:20:39;;;;;;;;;5.75;5.75;;;;;33.13;36.26;100760.31;146610;575;46018;-80
2022/07/05 13:23:31;;;;;;;;;6.50;6.50;;;;;33.17;35.97;100769.09;146612;593;46010;-80
2022/07/05 13:26:24;;;;;;;;;4.25;4.25;;;;;33.19;36.62;100760.03;146611;573;46019;-79
2022/07/05 13:29:16;;;;;;;;;9.75;8.00;;;;;33.26;36.40;100768.72;146610;668;46012;-78
2022/07/05 13:32:09;;;;;;;;;4.75;4.25;;;;;33.14;33.95;100759.34;146608;586;45921;-79
2022/07/05 13:35:01;;;;;;;;;4.00;4.00;;;;;33.06;34.60;100753.44;146611;660;46010;-79
2022/07/05 13:37:53;;;;;;;;;6.50;5.75;;;;;33.08;34.98;100754.22;146605;582;46010;-80
2022/07/05 13:40:45;;;;;;;;;5.00;5.00;;;;;32.93;34.75;100753.06;146612;677;46010;-79